sensor_id;sensor_type;location;lat;lon;timestamp;P1;durP1;ratioP1;P2;durP2;ratioP2
20241;SDS011;10279;46.388;8.116;2023-01-31T00:01:32;12.00;;;5.67;;
20241;SDS011;10279;46.388;8.116;2023-01-31T00:04:05;8.20;;;4.57;;
20241;SDS011;10279;46.388;8.116;2023-01-31T00:06:35;8.93;;;4.77;;
20241;SDS011;10279;46.388;8.116;2023-01-31T00:09:05;10.30;;;5.37;;
20241;SDS011;10279;46.388;8.116;2023-01-31T00:11:34;10.20;;;4.40;;
20241;SDS011;10279;46.388;8.116;2023-01-31T00:14:02;9.07;;;4.83;;
20241;SDS011;10279;46.388;8.116;2023-01-31T00:16:31;8.67;;;4.63;;
20241;SDS011;10279;46.388;8.116;2023-01-31T00:18:58;8.23;;;4.73;;
20241;SDS011;10279;46.388;8.116;2023-01-31T00:21:27;12.07;;;5.13;;
20241;SDS011;10279;46.388;8.116;2023-01-31T00:23:55;9.27;;;4.77;;
20241;SDS011;10279;46.388;8.116;2023-01-31T00:28:52;10.47;;;5.20;;
20241;SDS011;10279;46.388;8.116;2023-01-31T00:31:21;8.13;;;4.13;;
20241;SDS011;10279;46.388;8.116;2023-01-31T00:33:50;10.97;;;5.37;;
20241;SDS011;10279;46.388;8.116;2023-01-31T00:36:24;12.23;;;5.53;;
20241;SDS011;10279;46.388;8.116;2023-01-31T00:38:57;8.93;;;4.67;;
20241;SDS011;10279;46.388;8.116;2023-01-31T00:41:26;8.57;;;5.27;;
20241;SDS011;10279;46.388;8.116;2023-01-31T00:43:54;9.60;;;5.30;;
20241;SDS011;10279;46.388;8.116;2023-01-31T00:46:22;8.47;;;5.20;;
20241;SDS011;10279;46.388;8.116;2023-01-31T00:48:50;12.40;;;5.80;;
20241;SDS011;10279;46.388;8.116;2023-01-31T00:51:18;9.47;;;5.10;;
20241;SDS011;10279;46.388;8.116;2023-01-31T00:53:45;7.20;;;4.37;;
20241;SDS011;10279;46.388;8.116;2023-01-31T00:56:14;9.97;;;4.50;;
20241;SDS011;10279;46.388;8.116;2023-01-31T00:58:47;8.37;;;4.93;;
20241;SDS011;10279;46.388;8.116;2023-01-31T01:01:16;8.90;;;4.90;;
20241;SDS011;10279;46.388;8.116;2023-01-31T01:03:44;7.90;;;4.43;;
20241;SDS011;10279;46.388;8.116;2023-01-31T01:06:12;8.53;;;4.33;;
20241;SDS011;10279;46.388;8.116;2023-01-31T01:08:39;7.30;;;3.97;;
20241;SDS011;10279;46.388;8.116;2023-01-31T01:11:08;7.43;;;4.27;;
20241;SDS011;10279;46.388;8.116;2023-01-31T01:13:37;8.87;;;4.97;;
20241;SDS011;10279;46.388;8.116;2023-01-31T01:16:05;9.07;;;4.90;;
20241;SDS011;10279;46.388;8.116;2023-01-31T01:18:34;9.10;;;4.87;;
20241;SDS011;10279;46.388;8.116;2023-01-31T01:21:08;11.27;;;4.63;;
20241;SDS011;10279;46.388;8.116;2023-01-31T01:23:37;9.93;;;5.00;;
20241;SDS011;10279;46.388;8.116;2023-01-31T01:26:05;8.33;;;4.40;;
20241;SDS011;10279;46.388;8.116;2023-01-31T01:28:39;9.13;;;4.53;;
20241;SDS011;10279;46.388;8.116;2023-01-31T01:31:07;9.17;;;4.47;;
20241;SDS011;10279;46.388;8.116;2023-01-31T01:33:36;6.77;;;4.07;;
20241;SDS011;10279;46.388;8.116;2023-01-31T01:36:04;7.90;;;4.17;;
20241;SDS011;10279;46.388;8.116;2023-01-31T01:38:33;8.07;;;4.30;;
20241;SDS011;10279;46.388;8.116;2023-01-31T01:41:01;10.10;;;4.23;;
20241;SDS011;10279;46.388;8.116;2023-01-31T01:46:07;4.83;;;3.13;;
20241;SDS011;10279;46.388;8.116;2023-01-31T01:48:35;7.47;;;4.03;;
20241;SDS011;10279;46.388;8.116;2023-01-31T01:51:04;5.87;;;3.97;;
20241;SDS011;10279;46.388;8.116;2023-01-31T01:53:32;7.20;;;3.83;;
20241;SDS011;10279;46.388;8.116;2023-01-31T01:56:08;7.83;;;3.83;;
20241;SDS011;10279;46.388;8.116;2023-01-31T01:58:41;7.17;;;3.87;;
20241;SDS011;10279;46.388;8.116;2023-01-31T02:01:22;7.43;;;4.13;;
20241;SDS011;10279;46.388;8.116;2023-01-31T02:03:52;7.67;;;3.77;;
20241;SDS011;10279;46.388;8.116;2023-01-31T02:06:19;6.53;;;3.40;;
20241;SDS011;10279;46.388;8.116;2023-01-31T02:08:47;7.17;;;3.70;;
20241;SDS011;10279;46.388;8.116;2023-01-31T02:11:20;6.17;;;3.90;;
20241;SDS011;10279;46.388;8.116;2023-01-31T02:13:53;8.10;;;3.50;;
20241;SDS011;10279;46.388;8.116;2023-01-31T02:16:37;6.23;;;3.57;;
20241;SDS011;10279;46.388;8.116;2023-01-31T02:19:05;6.30;;;3.67;;
20241;SDS011;10279;46.388;8.116;2023-01-31T02:22:05;6.13;;;3.57;;
20241;SDS011;10279;46.388;8.116;2023-01-31T02:25:09;5.40;;;3.40;;
20241;SDS011;10279;46.388;8.116;2023-01-31T02:33:56;5.90;;;3.33;;
20241;SDS011;10279;46.388;8.116;2023-01-31T02:36:59;5.80;;;3.23;;
20241;SDS011;10279;46.388;8.116;2023-01-31T02:52:49;4.83;;;2.97;;
20241;SDS011;10279;46.388;8.116;2023-01-31T02:55:25;5.43;;;3.17;;
20241;SDS011;10279;46.388;8.116;2023-01-31T02:58:12;5.07;;;3.10;;
20241;SDS011;10279;46.388;8.116;2023-01-31T03:00:42;7.07;;;3.37;;
20241;SDS011;10279;46.388;8.116;2023-01-31T03:03:18;5.63;;;3.30;;
20241;SDS011;10279;46.388;8.116;2023-01-31T03:06:10;7.30;;;3.17;;
20241;SDS011;10279;46.388;8.116;2023-01-31T03:09:06;6.27;;;4.03;;
20241;SDS011;10279;46.388;8.116;2023-01-31T03:12:05;5.17;;;3.47;;
20241;SDS011;10279;46.388;8.116;2023-01-31T03:20:36;4.70;;;2.93;;
20241;SDS011;10279;46.388;8.116;2023-01-31T03:23:15;5.53;;;3.07;;
20241;SDS011;10279;46.388;8.116;2023-01-31T03:25:48;5.60;;;3.53;;
20241;SDS011;10279;46.388;8.116;2023-01-31T03:28:17;6.03;;;3.27;;
20241;SDS011;10279;46.388;8.116;2023-01-31T03:30:50;5.50;;;3.07;;
20241;SDS011;10279;46.388;8.116;2023-01-31T03:33:26;6.30;;;3.50;;
20241;SDS011;10279;46.388;8.116;2023-01-31T03:36:03;6.97;;;3.20;;
20241;SDS011;10279;46.388;8.116;2023-01-31T03:42:03;4.37;;;2.90;;
20241;SDS011;10279;46.388;8.116;2023-01-31T03:44:57;5.63;;;2.73;;
20241;SDS011;10279;46.388;8.116;2023-01-31T03:47:38;5.17;;;2.97;;
20241;SDS011;10279;46.388;8.116;2023-01-31T03:50:12;5.33;;;3.37;;
20241;SDS011;10279;46.388;8.116;2023-01-31T03:52:57;5.10;;;2.90;;
20241;SDS011;10279;46.388;8.116;2023-01-31T03:55:51;6.73;;;4.13;;
20241;SDS011;10279;46.388;8.116;2023-01-31T03:58:41;19.47;;;9.77;;
20241;SDS011;10279;46.388;8.116;2023-01-31T04:01:12;19.57;;;10.37;;
20241;SDS011;10279;46.388;8.116;2023-01-31T04:03:42;16.03;;;9.17;;
20241;SDS011;10279;46.388;8.116;2023-01-31T04:06:12;9.77;;;6.60;;
20241;SDS011;10279;46.388;8.116;2023-01-31T04:08:40;8.73;;;5.70;;
20241;SDS011;10279;46.388;8.116;2023-01-31T04:11:09;5.47;;;3.80;;
20241;SDS011;10279;46.388;8.116;2023-01-31T04:13:40;5.63;;;3.77;;
20241;SDS011;10279;46.388;8.116;2023-01-31T04:16:07;5.60;;;3.63;;
20241;SDS011;10279;46.388;8.116;2023-01-31T04:18:35;4.60;;;2.63;;
20241;SDS011;10279;46.388;8.116;2023-01-31T04:21:04;7.47;;;3.00;;
20241;SDS011;10279;46.388;8.116;2023-01-31T04:23:31;6.20;;;3.20;;
20241;SDS011;10279;46.388;8.116;2023-01-31T04:25:58;3.07;;;2.27;;
20241;SDS011;10279;46.388;8.116;2023-01-31T04:28:25;5.77;;;2.97;;
20241;SDS011;10279;46.388;8.116;2023-01-31T04:30:53;5.67;;;2.90;;
20241;SDS011;10279;46.388;8.116;2023-01-31T04:33:21;5.33;;;2.80;;
20241;SDS011;10279;46.388;8.116;2023-01-31T04:35:51;5.67;;;2.77;;
20241;SDS011;10279;46.388;8.116;2023-01-31T04:38:18;4.17;;;2.73;;
20241;SDS011;10279;46.388;8.116;2023-01-31T04:40:46;5.60;;;3.07;;
20241;SDS011;10279;46.388;8.116;2023-01-31T04:43:13;5.20;;;3.17;;
20241;SDS011;10279;46.388;8.116;2023-01-31T04:45:40;5.90;;;3.17;;
20241;SDS011;10279;46.388;8.116;2023-01-31T04:48:07;4.67;;;2.97;;
20241;SDS011;10279;46.388;8.116;2023-01-31T04:50:34;4.63;;;3.20;;
20241;SDS011;10279;46.388;8.116;2023-01-31T04:53:01;5.53;;;3.27;;
20241;SDS011;10279;46.388;8.116;2023-01-31T04:55:30;3.93;;;2.63;;
20241;SDS011;10279;46.388;8.116;2023-01-31T04:57:57;6.77;;;3.60;;
20241;SDS011;10279;46.388;8.116;2023-01-31T05:00:27;5.80;;;3.30;;
20241;SDS011;10279;46.388;8.116;2023-01-31T05:02:54;6.17;;;2.67;;
20241;SDS011;10279;46.388;8.116;2023-01-31T05:05:21;6.43;;;2.70;;
20241;SDS011;10279;46.388;8.116;2023-01-31T05:07:48;5.27;;;2.80;;
20241;SDS011;10279;46.388;8.116;2023-01-31T05:10:15;4.13;;;2.23;;
20241;SDS011;10279;46.388;8.116;2023-01-31T05:12:43;5.50;;;2.97;;
20241;SDS011;10279;46.388;8.116;2023-01-31T05:15:10;6.90;;;3.13;;
20241;SDS011;10279;46.388;8.116;2023-01-31T05:17:37;4.40;;;2.83;;
20241;SDS011;10279;46.388;8.116;2023-01-31T05:20:04;6.80;;;2.93;;
20241;SDS011;10279;46.388;8.116;2023-01-31T05:22:32;3.87;;;2.30;;
20241;SDS011;10279;46.388;8.116;2023-01-31T05:24:59;5.70;;;2.73;;
20241;SDS011;10279;46.388;8.116;2023-01-31T05:27:26;3.10;;;1.87;;
20241;SDS011;10279;46.388;8.116;2023-01-31T05:29:53;3.90;;;2.10;;
20241;SDS011;10279;46.388;8.116;2023-01-31T05:32:20;3.70;;;2.30;;
20241;SDS011;10279;46.388;8.116;2023-01-31T05:34:47;3.93;;;2.67;;
20241;SDS011;10279;46.388;8.116;2023-01-31T05:37:14;4.37;;;2.43;;
20241;SDS011;10279;46.388;8.116;2023-01-31T05:39:41;4.80;;;2.77;;
20241;SDS011;10279;46.388;8.116;2023-01-31T05:42:08;4.83;;;2.53;;
20241;SDS011;10279;46.388;8.116;2023-01-31T05:44:35;4.17;;;2.00;;
20241;SDS011;10279;46.388;8.116;2023-01-31T05:47:02;3.67;;;2.17;;
20241;SDS011;10279;46.388;8.116;2023-01-31T05:49:29;5.23;;;2.80;;
20241;SDS011;10279;46.388;8.116;2023-01-31T05:51:59;5.87;;;2.87;;
20241;SDS011;10279;46.388;8.116;2023-01-31T05:54:27;4.67;;;2.53;;
20241;SDS011;10279;46.388;8.116;2023-01-31T05:56:54;2.97;;;2.00;;
20241;SDS011;10279;46.388;8.116;2023-01-31T05:59:21;3.40;;;2.30;;
20241;SDS011;10279;46.388;8.116;2023-01-31T06:01:48;4.03;;;2.07;;
20241;SDS011;10279;46.388;8.116;2023-01-31T06:04:15;3.87;;;2.50;;
20241;SDS011;10279;46.388;8.116;2023-01-31T06:06:42;4.07;;;2.93;;
20241;SDS011;10279;46.388;8.116;2023-01-31T06:09:10;3.23;;;2.50;;
20241;SDS011;10279;46.388;8.116;2023-01-31T06:11:37;3.03;;;2.10;;
20241;SDS011;10279;46.388;8.116;2023-01-31T06:14:04;5.20;;;2.40;;
20241;SDS011;10279;46.388;8.116;2023-01-31T06:16:32;5.20;;;2.67;;
20241;SDS011;10279;46.388;8.116;2023-01-31T06:18:59;3.27;;;2.40;;
20241;SDS011;10279;46.388;8.116;2023-01-31T06:21:27;3.20;;;2.10;;
20241;SDS011;10279;46.388;8.116;2023-01-31T06:23:54;4.17;;;2.80;;
20241;SDS011;10279;46.388;8.116;2023-01-31T06:26:21;3.83;;;2.30;;
20241;SDS011;10279;46.388;8.116;2023-01-31T06:28:48;4.50;;;2.50;;
20241;SDS011;10279;46.388;8.116;2023-01-31T06:31:15;4.63;;;2.63;;
20241;SDS011;10279;46.388;8.116;2023-01-31T06:33:43;7.00;;;2.83;;
20241;SDS011;10279;46.388;8.116;2023-01-31T06:36:14;4.43;;;2.80;;
20241;SDS011;10279;46.388;8.116;2023-01-31T06:38:49;3.53;;;2.20;;
20241;SDS011;10279;46.388;8.116;2023-01-31T06:41:18;2.83;;;2.10;;
20241;SDS011;10279;46.388;8.116;2023-01-31T06:43:45;3.90;;;2.10;;
20241;SDS011;10279;46.388;8.116;2023-01-31T06:46:12;3.53;;;2.10;;
20241;SDS011;10279;46.388;8.116;2023-01-31T06:48:40;4.13;;;2.20;;
20241;SDS011;10279;46.388;8.116;2023-01-31T06:51:07;3.30;;;1.77;;
20241;SDS011;10279;46.388;8.116;2023-01-31T06:53:33;3.80;;;1.90;;
20241;SDS011;10279;46.388;8.116;2023-01-31T06:56:00;3.03;;;1.70;;
20241;SDS011;10279;46.388;8.116;2023-01-31T06:58:27;3.17;;;2.10;;
20241;SDS011;10279;46.388;8.116;2023-01-31T07:00:54;4.30;;;2.10;;
20241;SDS011;10279;46.388;8.116;2023-01-31T07:03:22;3.50;;;1.97;;
20241;SDS011;10279;46.388;8.116;2023-01-31T07:05:49;6.73;;;2.63;;
20241;SDS011;10279;46.388;8.116;2023-01-31T07:08:16;4.13;;;2.57;;
20241;SDS011;10279;46.388;8.116;2023-01-31T07:10:43;4.30;;;2.47;;
20241;SDS011;10279;46.388;8.116;2023-01-31T07:13:10;4.17;;;2.20;;
20241;SDS011;10279;46.388;8.116;2023-01-31T07:15:37;4.57;;;2.57;;
20241;SDS011;10279;46.388;8.116;2023-01-31T07:18:04;2.73;;;2.23;;
20241;SDS011;10279;46.388;8.116;2023-01-31T07:20:31;3.17;;;2.00;;
20241;SDS011;10279;46.388;8.116;2023-01-31T07:22:58;4.33;;;2.77;;
20241;SDS011;10279;46.388;8.116;2023-01-31T07:25:26;4.03;;;2.37;;
20241;SDS011;10279;46.388;8.116;2023-01-31T07:27:53;4.73;;;2.03;;
20241;SDS011;10279;46.388;8.116;2023-01-31T07:30:20;3.77;;;2.40;;
20241;SDS011;10279;46.388;8.116;2023-01-31T07:32:47;4.17;;;2.30;;
20241;SDS011;10279;46.388;8.116;2023-01-31T07:35:14;3.77;;;2.67;;
20241;SDS011;10279;46.388;8.116;2023-01-31T07:37:41;5.57;;;3.13;;
20241;SDS011;10279;46.388;8.116;2023-01-31T07:40:12;5.50;;;2.50;;
20241;SDS011;10279;46.388;8.116;2023-01-31T07:42:41;5.87;;;2.33;;
20241;SDS011;10279;46.388;8.116;2023-01-31T07:45:09;6.87;;;2.87;;
20241;SDS011;10279;46.388;8.116;2023-01-31T07:47:48;3.97;;;2.60;;
20241;SDS011;10279;46.388;8.116;2023-01-31T07:50:16;4.17;;;2.73;;
20241;SDS011;10279;46.388;8.116;2023-01-31T07:52:43;7.63;;;3.40;;
20241;SDS011;10279;46.388;8.116;2023-01-31T07:55:10;4.30;;;2.77;;
20241;SDS011;10279;46.388;8.116;2023-01-31T07:57:37;3.93;;;2.30;;
20241;SDS011;10279;46.388;8.116;2023-01-31T08:00:04;4.30;;;1.97;;
20241;SDS011;10279;46.388;8.116;2023-01-31T08:02:52;4.27;;;2.60;;
20241;SDS011;10279;46.388;8.116;2023-01-31T08:05:37;4.60;;;2.87;;
20241;SDS011;10279;46.388;8.116;2023-01-31T08:08:04;6.63;;;3.37;;
20241;SDS011;10279;46.388;8.116;2023-01-31T08:10:37;3.20;;;2.30;;
20241;SDS011;10279;46.388;8.116;2023-01-31T08:13:05;3.63;;;2.20;;
20241;SDS011;10279;46.388;8.116;2023-01-31T08:15:32;4.33;;;2.60;;
20241;SDS011;10279;46.388;8.116;2023-01-31T08:18:00;3.60;;;2.47;;
20241;SDS011;10279;46.388;8.116;2023-01-31T08:20:30;5.23;;;2.60;;
20241;SDS011;10279;46.388;8.116;2023-01-31T08:22:57;4.43;;;2.50;;
20241;SDS011;10279;46.388;8.116;2023-01-31T08:25:26;4.97;;;2.10;;
20241;SDS011;10279;46.388;8.116;2023-01-31T08:27:57;3.70;;;2.67;;
20241;SDS011;10279;46.388;8.116;2023-01-31T08:30:25;4.00;;;2.07;;
20241;SDS011;10279;46.388;8.116;2023-01-31T08:32:53;3.83;;;2.03;;
20241;SDS011;10279;46.388;8.116;2023-01-31T08:35:20;8.37;;;3.10;;
20241;SDS011;10279;46.388;8.116;2023-01-31T08:37:47;12.87;;;4.43;;
20241;SDS011;10279;46.388;8.116;2023-01-31T08:40:14;5.30;;;2.43;;
20241;SDS011;10279;46.388;8.116;2023-01-31T08:42:42;3.57;;;2.10;;
20241;SDS011;10279;46.388;8.116;2023-01-31T08:45:09;4.00;;;2.37;;
20241;SDS011;10279;46.388;8.116;2023-01-31T08:47:36;3.83;;;2.20;;
20241;SDS011;10279;46.388;8.116;2023-01-31T08:50:07;5.50;;;3.00;;
20241;SDS011;10279;46.388;8.116;2023-01-31T08:52:56;4.67;;;2.50;;
20241;SDS011;10279;46.388;8.116;2023-01-31T08:55:25;3.87;;;2.60;;
20241;SDS011;10279;46.388;8.116;2023-01-31T08:57:54;3.77;;;2.30;;
20241;SDS011;10279;46.388;8.116;2023-01-31T09:00:25;3.67;;;1.87;;
20241;SDS011;10279;46.388;8.116;2023-01-31T09:02:53;3.73;;;2.27;;
20241;SDS011;10279;46.388;8.116;2023-01-31T09:05:21;7.80;;;2.50;;
20241;SDS011;10279;46.388;8.116;2023-01-31T09:07:50;5.47;;;2.40;;
20241;SDS011;10279;46.388;8.116;2023-01-31T09:10:18;3.47;;;1.90;;
20241;SDS011;10279;46.388;8.116;2023-01-31T09:12:45;4.27;;;2.47;;
20241;SDS011;10279;46.388;8.116;2023-01-31T09:15:12;5.20;;;2.40;;
20241;SDS011;10279;46.388;8.116;2023-01-31T09:17:40;4.67;;;2.60;;
20241;SDS011;10279;46.388;8.116;2023-01-31T09:20:09;4.53;;;3.10;;
20241;SDS011;10279;46.388;8.116;2023-01-31T09:22:36;4.77;;;2.50;;
20241;SDS011;10279;46.388;8.116;2023-01-31T09:25:03;4.87;;;2.67;;
20241;SDS011;10279;46.388;8.116;2023-01-31T09:27:31;5.27;;;3.20;;
20241;SDS011;10279;46.388;8.116;2023-01-31T09:29:58;4.77;;;2.27;;
20241;SDS011;10279;46.388;8.116;2023-01-31T09:32:25;3.67;;;2.40;;
20241;SDS011;10279;46.388;8.116;2023-01-31T09:34:52;8.00;;;2.57;;
20241;SDS011;10279;46.388;8.116;2023-01-31T09:37:19;6.17;;;2.50;;
20241;SDS011;10279;46.388;8.116;2023-01-31T09:39:46;8.87;;;3.17;;
20241;SDS011;10279;46.388;8.116;2023-01-31T09:45:11;6.97;;;2.87;;
20241;SDS011;10279;46.388;8.116;2023-01-31T09:47:43;4.37;;;2.57;;
20241;SDS011;10279;46.388;8.116;2023-01-31T09:52:51;4.13;;;2.27;;
20241;SDS011;10279;46.388;8.116;2023-01-31T09:55:21;7.07;;;2.50;;
20241;SDS011;10279;46.388;8.116;2023-01-31T10:01:28;6.00;;;2.63;;
20241;SDS011;10279;46.388;8.116;2023-01-31T10:03:47;3.50;;;2.27;;
20241;SDS011;10279;46.388;8.116;2023-01-31T10:11:46;6.03;;;2.80;;
20241;SDS011;10279;46.388;8.116;2023-01-31T10:19:33;7.43;;;3.87;;
20241;SDS011;10279;46.388;8.116;2023-01-31T10:22:12;6.63;;;2.80;;
20241;SDS011;10279;46.388;8.116;2023-01-31T10:24:48;7.00;;;3.00;;
20241;SDS011;10279;46.388;8.116;2023-01-31T10:27:41;6.77;;;3.27;;
20241;SDS011;10279;46.388;8.116;2023-01-31T10:30:18;7.30;;;2.23;;
20241;SDS011;10279;46.388;8.116;2023-01-31T10:32:50;4.50;;;2.30;;
20241;SDS011;10279;46.388;8.116;2023-01-31T10:35:27;4.47;;;2.23;;
20241;SDS011;10279;46.388;8.116;2023-01-31T10:38:03;3.10;;;2.27;;
20241;SDS011;10279;46.388;8.116;2023-01-31T10:40:41;3.97;;;1.83;;
20241;SDS011;10279;46.388;8.116;2023-01-31T10:43:15;3.53;;;2.23;;
20241;SDS011;10279;46.388;8.116;2023-01-31T10:45:47;3.20;;;2.60;;
20241;SDS011;10279;46.388;8.116;2023-01-31T10:48:16;5.00;;;2.13;;
20241;SDS011;10279;46.388;8.116;2023-01-31T10:50:57;4.13;;;2.50;;
20241;SDS011;10279;46.388;8.116;2023-01-31T10:53:38;3.70;;;1.93;;
20241;SDS011;10279;46.388;8.116;2023-01-31T10:58:57;4.13;;;2.70;;
20241;SDS011;10279;46.388;8.116;2023-01-31T11:01:26;4.53;;;2.80;;
20241;SDS011;10279;46.388;8.116;2023-01-31T11:03:54;4.73;;;3.10;;
20241;SDS011;10279;46.388;8.116;2023-01-31T11:06:22;6.07;;;3.67;;
20241;SDS011;10279;46.388;8.116;2023-01-31T11:11:19;5.33;;;3.40;;
20241;SDS011;10279;46.388;8.116;2023-01-31T11:13:58;4.43;;;3.00;;
20241;SDS011;10279;46.388;8.116;2023-01-31T11:16:37;4.87;;;2.60;;
20241;SDS011;10279;46.388;8.116;2023-01-31T11:21:51;5.83;;;3.07;;
20241;SDS011;10279;46.388;8.116;2023-01-31T11:24:20;4.90;;;3.30;;
20241;SDS011;10279;46.388;8.116;2023-01-31T11:26:51;6.30;;;3.83;;
20241;SDS011;10279;46.388;8.116;2023-01-31T11:29:40;4.53;;;2.97;;
20241;SDS011;10279;46.388;8.116;2023-01-31T11:32:17;5.07;;;3.23;;
20241;SDS011;10279;46.388;8.116;2023-01-31T11:34:53;5.50;;;3.33;;
20241;SDS011;10279;46.388;8.116;2023-01-31T11:37:21;5.90;;;3.47;;
20241;SDS011;10279;46.388;8.116;2023-01-31T11:39:53;5.17;;;3.27;;
20241;SDS011;10279;46.388;8.116;2023-01-31T11:42:22;5.37;;;3.90;;
20241;SDS011;10279;46.388;8.116;2023-01-31T11:44:53;5.13;;;2.90;;
20241;SDS011;10279;46.388;8.116;2023-01-31T11:47:45;5.93;;;3.47;;
20241;SDS011;10279;46.388;8.116;2023-01-31T11:50:39;5.67;;;3.30;;
20241;SDS011;10279;46.388;8.116;2023-01-31T11:53:31;3.50;;;2.37;;
20241;SDS011;10279;46.388;8.116;2023-01-31T11:56:13;3.40;;;2.87;;
20241;SDS011;10279;46.388;8.116;2023-01-31T11:58:51;5.23;;;2.63;;
20241;SDS011;10279;46.388;8.116;2023-01-31T12:01:23;4.47;;;2.47;;
20241;SDS011;10279;46.388;8.116;2023-01-31T12:03:58;2.83;;;2.00;;
20241;SDS011;10279;46.388;8.116;2023-01-31T12:08:59;4.63;;;2.43;;
20241;SDS011;10279;46.388;8.116;2023-01-31T12:11:28;5.37;;;2.90;;
20241;SDS011;10279;46.388;8.116;2023-01-31T12:14:14;3.37;;;2.00;;
20241;SDS011;10279;46.388;8.116;2023-01-31T12:16:42;3.67;;;1.97;;
20241;SDS011;10279;46.388;8.116;2023-01-31T12:32:44;5.03;;;1.70;;
20241;SDS011;10279;46.388;8.116;2023-01-31T12:46:36;3.27;;;2.27;;
20241;SDS011;10279;46.388;8.116;2023-01-31T13:11:46;3.93;;;2.10;;
20241;SDS011;10279;46.388;8.116;2023-01-31T13:14:21;3.93;;;2.50;;
20241;SDS011;10279;46.388;8.116;2023-01-31T13:16:53;2.33;;;1.60;;
20241;SDS011;10279;46.388;8.116;2023-01-31T13:22:17;3.70;;;2.30;;
20241;SDS011;10279;46.388;8.116;2023-01-31T13:25:04;2.83;;;1.90;;
20241;SDS011;10279;46.388;8.116;2023-01-31T13:27:39;2.53;;;1.70;;
20241;SDS011;10279;46.388;8.116;2023-01-31T13:32:45;2.73;;;1.60;;
20241;SDS011;10279;46.388;8.116;2023-01-31T13:35:22;3.63;;;2.00;;
20241;SDS011;10279;46.388;8.116;2023-01-31T13:37:52;4.13;;;2.47;;
20241;SDS011;10279;46.388;8.116;2023-01-31T13:40:29;4.20;;;2.00;;
20241;SDS011;10279;46.388;8.116;2023-01-31T13:43:07;3.63;;;1.90;;
20241;SDS011;10279;46.388;8.116;2023-01-31T13:45:52;2.77;;;1.90;;
20241;SDS011;10279;46.388;8.116;2023-01-31T13:48:34;2.77;;;1.83;;
20241;SDS011;10279;46.388;8.116;2023-01-31T13:51:22;3.03;;;1.93;;
20241;SDS011;10279;46.388;8.116;2023-01-31T13:53:52;3.23;;;1.70;;
20241;SDS011;10279;46.388;8.116;2023-01-31T13:56:28;4.13;;;1.97;;
20241;SDS011;10279;46.388;8.116;2023-01-31T13:59:00;2.20;;;1.63;;
20241;SDS011;10279;46.388;8.116;2023-01-31T14:01:30;3.00;;;1.90;;
20241;SDS011;10279;46.388;8.116;2023-01-31T14:14:54;2.60;;;1.80;;
20241;SDS011;10279;46.388;8.116;2023-01-31T14:52:08;3.13;;;2.40;;
20241;SDS011;10279;46.388;8.116;2023-01-31T14:57:54;3.43;;;2.10;;
20241;SDS011;10279;46.388;8.116;2023-01-31T15:00:25;2.23;;;1.83;;
20241;SDS011;10279;46.388;8.116;2023-01-31T15:05:45;3.47;;;1.87;;
20241;SDS011;10279;46.388;8.116;2023-01-31T15:11:02;4.60;;;2.40;;
20241;SDS011;10279;46.388;8.116;2023-01-31T15:13:37;2.87;;;1.90;;
20241;SDS011;10279;46.388;8.116;2023-01-31T15:16:09;3.60;;;2.20;;
20241;SDS011;10279;46.388;8.116;2023-01-31T15:18:37;5.63;;;2.03;;
20241;SDS011;10279;46.388;8.116;2023-01-31T15:21:06;4.47;;;2.30;;
20241;SDS011;10279;46.388;8.116;2023-01-31T15:23:34;5.67;;;2.17;;
20241;SDS011;10279;46.388;8.116;2023-01-31T15:26:04;5.00;;;2.37;;
20241;SDS011;10279;46.388;8.116;2023-01-31T15:28:32;6.03;;;2.60;;
20241;SDS011;10279;46.388;8.116;2023-01-31T15:31:03;3.90;;;2.40;;
20241;SDS011;10279;46.388;8.116;2023-01-31T15:33:33;3.70;;;2.37;;
20241;SDS011;10279;46.388;8.116;2023-01-31T15:36:24;2.73;;;2.20;;
20241;SDS011;10279;46.388;8.116;2023-01-31T15:38:55;3.00;;;1.70;;
20241;SDS011;10279;46.388;8.116;2023-01-31T15:41:24;4.70;;;1.93;;
20241;SDS011;10279;46.388;8.116;2023-01-31T15:43:53;4.80;;;2.17;;
20241;SDS011;10279;46.388;8.116;2023-01-31T15:48:48;4.57;;;2.50;;
20241;SDS011;10279;46.388;8.116;2023-01-31T15:51:15;3.77;;;2.60;;
20241;SDS011;10279;46.388;8.116;2023-01-31T15:53:44;5.43;;;2.60;;
20241;SDS011;10279;46.388;8.116;2023-01-31T15:56:21;4.77;;;2.20;;
20241;SDS011;10279;46.388;8.116;2023-01-31T15:58:50;12.13;;;2.93;;
20241;SDS011;10279;46.388;8.116;2023-01-31T16:01:18;5.00;;;2.77;;
20241;SDS011;10279;46.388;8.116;2023-01-31T16:03:53;4.03;;;2.93;;
20241;SDS011;10279;46.388;8.116;2023-01-31T16:06:25;4.33;;;2.70;;
20241;SDS011;10279;46.388;8.116;2023-01-31T16:08:54;6.50;;;2.70;;
20241;SDS011;10279;46.388;8.116;2023-01-31T16:11:29;3.83;;;2.20;;
20241;SDS011;10279;46.388;8.116;2023-01-31T16:14:03;6.23;;;2.33;;
20241;SDS011;10279;46.388;8.116;2023-01-31T16:16:32;3.03;;;2.00;;
20241;SDS011;10279;46.388;8.116;2023-01-31T16:19:00;3.20;;;2.13;;
20241;SDS011;10279;46.388;8.116;2023-01-31T16:26:42;2.97;;;2.20;;
20241;SDS011;10279;46.388;8.116;2023-01-31T16:29:14;3.53;;;1.80;;
20241;SDS011;10279;46.388;8.116;2023-01-31T16:31:47;4.83;;;2.50;;
20241;SDS011;10279;46.388;8.116;2023-01-31T16:34:34;6.70;;;2.30;;
20241;SDS011;10279;46.388;8.116;2023-01-31T16:37:05;6.40;;;2.50;;
20241;SDS011;10279;46.388;8.116;2023-01-31T16:39:42;7.80;;;4.90;;
20241;SDS011;10279;46.388;8.116;2023-01-31T16:44:46;1.97;;;1.57;;
20241;SDS011;10279;46.388;8.116;2023-01-31T16:47:30;3.77;;;2.10;;
20241;SDS011;10279;46.388;8.116;2023-01-31T16:52:50;4.83;;;2.50;;
20241;SDS011;10279;46.388;8.116;2023-01-31T16:55:19;1.80;;;1.40;;
20241;SDS011;10279;46.388;8.116;2023-01-31T16:57:47;3.00;;;1.30;;
20241;SDS011;10279;46.388;8.116;2023-01-31T17:02:53;3.03;;;1.40;;
20241;SDS011;10279;46.388;8.116;2023-01-31T17:05:34;2.20;;;1.23;;
20241;SDS011;10279;46.388;8.116;2023-01-31T17:08:03;1.70;;;1.40;;
20241;SDS011;10279;46.388;8.116;2023-01-31T17:10:32;1.57;;;1.47;;
20241;SDS011;10279;46.388;8.116;2023-01-31T17:13:00;2.20;;;1.37;;
20241;SDS011;10279;46.388;8.116;2023-01-31T17:15:28;4.40;;;1.87;;
20241;SDS011;10279;46.388;8.116;2023-01-31T17:17:56;2.73;;;1.80;;
20241;SDS011;10279;46.388;8.116;2023-01-31T17:20:23;7.40;;;1.93;;
20241;SDS011;10279;46.388;8.116;2023-01-31T17:22:51;2.70;;;1.80;;
20241;SDS011;10279;46.388;8.116;2023-01-31T17:25:30;2.13;;;1.63;;
20241;SDS011;10279;46.388;8.116;2023-01-31T17:27:58;3.27;;;2.10;;
20241;SDS011;10279;46.388;8.116;2023-01-31T17:30:25;4.23;;;2.30;;
20241;SDS011;10279;46.388;8.116;2023-01-31T17:32:55;4.07;;;2.40;;
20241;SDS011;10279;46.388;8.116;2023-01-31T17:35:24;4.13;;;2.70;;
20241;SDS011;10279;46.388;8.116;2023-01-31T17:37:51;6.30;;;3.00;;
20241;SDS011;10279;46.388;8.116;2023-01-31T17:40:19;5.67;;;3.10;;
20241;SDS011;10279;46.388;8.116;2023-01-31T17:42:46;5.53;;;2.83;;
20241;SDS011;10279;46.388;8.116;2023-01-31T17:45:15;4.73;;;2.23;;
20241;SDS011;10279;46.388;8.116;2023-01-31T17:47:44;5.13;;;2.83;;
20241;SDS011;10279;46.388;8.116;2023-01-31T17:50:22;4.13;;;2.67;;
20241;SDS011;10279;46.388;8.116;2023-01-31T17:52:49;5.13;;;2.93;;
20241;SDS011;10279;46.388;8.116;2023-01-31T17:55:17;4.13;;;2.80;;
20241;SDS011;10279;46.388;8.116;2023-01-31T17:57:45;5.23;;;3.03;;
20241;SDS011;10279;46.388;8.116;2023-01-31T18:00:14;5.30;;;3.17;;
20241;SDS011;10279;46.388;8.116;2023-01-31T18:02:43;7.97;;;3.40;;
20241;SDS011;10279;46.388;8.116;2023-01-31T18:05:11;4.93;;;3.47;;
20241;SDS011;10279;46.388;8.116;2023-01-31T18:07:39;5.20;;;3.00;;
20241;SDS011;10279;46.388;8.116;2023-01-31T18:10:07;5.03;;;3.30;;
20241;SDS011;10279;46.388;8.116;2023-01-31T18:12:35;5.63;;;3.43;;
20241;SDS011;10279;46.388;8.116;2023-01-31T18:15:02;7.83;;;3.67;;
20241;SDS011;10279;46.388;8.116;2023-01-31T18:17:30;5.37;;;3.23;;
20241;SDS011;10279;46.388;8.116;2023-01-31T18:19:57;5.20;;;3.53;;